Terminal Aerodrome Forecast
Issued by NWS

Home | Current Version | Previous Version | Graphics & Text | Print | Product List | Glossary On
Versions: 1 2 3 4 5 6 7 8 9 10 11 12
561
FTUS43 KMPX 191741
TAFRWF
TAF
KRWF 191741Z 1918/2018 36009G15KT P6SM FEW025
     FM200200 36003KT P6SM BKN250
     FM200600 01002KT P6SM OVC100=

USA.gov is the U.S. government's official web portal to all federal, state and local government web resources and services.